sensor_id;sensor_type;location;lat;lon;timestamp;temperature;humidity
37158;DHT22;23050;51.776;22.638;2023-05-16T00:00:51;12.20;99.90
37158;DHT22;23050;51.776;22.638;2023-05-16T00:03:18;12.20;99.90
37158;DHT22;23050;51.776;22.638;2023-05-16T00:05:43;12.20;99.90
37158;DHT22;23050;51.776;22.638;2023-05-16T00:08:10;12.20;99.90
37158;DHT22;23050;51.776;22.638;2023-05-16T00:10:35;12.10;99.90
37158;DHT22;23050;51.776;22.638;2023-05-16T00:13:01;12.10;99.90
37158;DHT22;23050;51.776;22.638;2023-05-16T00:15:27;12.10;99.90
37158;DHT22;23050;51.776;22.638;2023-05-16T00:17:54;12.10;99.90
37158;DHT22;23050;51.776;22.638;2023-05-16T00:20:23;12.10;99.90
37158;DHT22;23050;51.776;22.638;2023-05-16T00:22:49;12.10;99.90
37158;DHT22;23050;51.776;22.638;2023-05-16T00:25:14;12.00;99.90
37158;DHT22;23050;51.776;22.638;2023-05-16T00:27:40;12.10;99.90
37158;DHT22;23050;51.776;22.638;2023-05-16T00:30:06;12.10;99.90
37158;DHT22;23050;51.776;22.638;2023-05-16T00:32:31;12.00;99.90
37158;DHT22;23050;51.776;22.638;2023-05-16T00:34:57;12.00;99.90
37158;DHT22;23050;51.776;22.638;2023-05-16T00:37:22;12.00;99.90
37158;DHT22;23050;51.776;22.638;2023-05-16T00:39:48;12.00;99.90
37158;DHT22;23050;51.776;22.638;2023-05-16T00:42:13;11.90;99.90
37158;DHT22;23050;51.776;22.638;2023-05-16T00:44:39;11.90;99.90
37158;DHT22;23050;51.776;22.638;2023-05-16T00:47:05;11.80;99.90
37158;DHT22;23050;51.776;22.638;2023-05-16T00:49:31;11.80;99.90
37158;DHT22;23050;51.776;22.638;2023-05-16T00:51:57;11.80;99.90
37158;DHT22;23050;51.776;22.638;2023-05-16T00:54:23;11.70;99.90
37158;DHT22;23050;51.776;22.638;2023-05-16T00:56:51;11.70;99.90
37158;DHT22;23050;51.776;22.638;2023-05-16T00:59:17;11.70;99.90
37158;DHT22;23050;51.776;22.638;2023-05-16T01:01:44;11.70;99.90
37158;DHT22;23050;51.776;22.638;2023-05-16T01:04:10;11.70;99.90
37158;DHT22;23050;51.776;22.638;2023-05-16T01:06:36;11.60;99.90
37158;DHT22;23050;51.776;22.638;2023-05-16T01:09:02;11.60;99.90
37158;DHT22;23050;51.776;22.638;2023-05-16T01:11:42;11.60;99.90
37158;DHT22;23050;51.776;22.638;2023-05-16T01:14:15;11.60;99.90
37158;DHT22;23050;51.776;22.638;2023-05-16T01:17:04;11.60;99.90
37158;DHT22;23050;51.776;22.638;2023-05-16T01:24:57;11.40;99.90
37158;DHT22;23050;51.776;22.638;2023-05-16T01:27:25;11.30;99.90
37158;DHT22;23050;51.776;22.638;2023-05-16T01:29:55;11.30;99.90
37158;DHT22;23050;51.776;22.638;2023-05-16T01:32:20;11.20;99.90
37158;DHT22;23050;51.776;22.638;2023-05-16T01:34:47;11.20;99.90
37158;DHT22;23050;51.776;22.638;2023-05-16T01:37:17;11.10;99.90
37158;DHT22;23050;51.776;22.638;2023-05-16T01:39:51;11.10;99.90
37158;DHT22;23050;51.776;22.638;2023-05-16T01:42:18;11.00;99.90
37158;DHT22;23050;51.776;22.638;2023-05-16T01:47:29;11.00;99.90
37158;DHT22;23050;51.776;22.638;2023-05-16T01:50:14;10.90;99.90
37158;DHT22;23050;51.776;22.638;2023-05-16T01:58:10;10.80;99.90
37158;DHT22;23050;51.776;22.638;2023-05-16T02:00:36;10.80;99.90
37158;DHT22;23050;51.776;22.638;2023-05-16T02:03:02;10.80;99.90
37158;DHT22;23050;51.776;22.638;2023-05-16T02:05:27;10.70;99.90
37158;DHT22;23050;51.776;22.638;2023-05-16T02:07:53;10.70;99.90
37158;DHT22;23050;51.776;22.638;2023-05-16T02:10:18;10.60;99.90
37158;DHT22;23050;51.776;22.638;2023-05-16T02:12:44;10.60;99.90
37158;DHT22;23050;51.776;22.638;2023-05-16T02:15:10;10.60;99.90
37158;DHT22;23050;51.776;22.638;2023-05-16T02:17:35;10.60;99.90
37158;DHT22;23050;51.776;22.638;2023-05-16T02:20:01;10.50;99.90
37158;DHT22;23050;51.776;22.638;2023-05-16T02:22:33;10.40;99.90
37158;DHT22;23050;51.776;22.638;2023-05-16T02:25:00;10.40;99.90
37158;DHT22;23050;51.776;22.638;2023-05-16T02:27:27;10.30;99.90
37158;DHT22;23050;51.776;22.638;2023-05-16T02:29:53;10.30;99.90
37158;DHT22;23050;51.776;22.638;2023-05-16T02:32:18;10.20;99.90
37158;DHT22;23050;51.776;22.638;2023-05-16T02:34:44;10.30;99.90
37158;DHT22;23050;51.776;22.638;2023-05-16T02:37:09;10.20;99.90
37158;DHT22;23050;51.776;22.638;2023-05-16T02:39:35;10.10;99.90
37158;DHT22;23050;51.776;22.638;2023-05-16T02:42:00;10.10;99.90
37158;DHT22;23050;51.776;22.638;2023-05-16T02:44:26;10.00;99.90
37158;DHT22;23050;51.776;22.638;2023-05-16T02:46:51;10.00;99.90
37158;DHT22;23050;51.776;22.638;2023-05-16T02:49:17;9.90;99.90
37158;DHT22;23050;51.776;22.638;2023-05-16T02:51:42;9.90;99.90
37158;DHT22;23050;51.776;22.638;2023-05-16T02:54:08;9.90;99.90
37158;DHT22;23050;51.776;22.638;2023-05-16T02:56:34;9.90;99.90
37158;DHT22;23050;51.776;22.638;2023-05-16T02:59:00;10.00;99.90
37158;DHT22;23050;51.776;22.638;2023-05-16T03:01:25;10.00;99.90
37158;DHT22;23050;51.776;22.638;2023-05-16T03:03:51;10.00;99.90
37158;DHT22;23050;51.776;22.638;2023-05-16T03:06:16;10.00;99.90
37158;DHT22;23050;51.776;22.638;2023-05-16T03:08:42;10.00;99.90
37158;DHT22;23050;51.776;22.638;2023-05-16T03:11:07;10.10;99.90
37158;DHT22;23050;51.776;22.638;2023-05-16T03:13:32;10.10;99.90
37158;DHT22;23050;51.776;22.638;2023-05-16T03:15:58;10.10;99.90
37158;DHT22;23050;51.776;22.638;2023-05-16T03:18:24;10.10;99.90
37158;DHT22;23050;51.776;22.638;2023-05-16T03:20:49;10.10;99.90
37158;DHT22;23050;51.776;22.638;2023-05-16T03:23:17;10.10;99.90
37158;DHT22;23050;51.776;22.638;2023-05-16T03:25:43;10.10;99.90
37158;DHT22;23050;51.776;22.638;2023-05-16T03:28:10;10.10;99.90
37158;DHT22;23050;51.776;22.638;2023-05-16T03:30:36;10.20;99.90
37158;DHT22;23050;51.776;22.638;2023-05-16T03:33:02;10.20;99.90
37158;DHT22;23050;51.776;22.638;2023-05-16T03:35:28;10.20;99.90
37158;DHT22;23050;51.776;22.638;2023-05-16T03:37:54;10.20;99.90
37158;DHT22;23050;51.776;22.638;2023-05-16T03:40:20;10.30;99.90
37158;DHT22;23050;51.776;22.638;2023-05-16T03:42:45;10.30;99.90
37158;DHT22;23050;51.776;22.638;2023-05-16T03:45:11;10.30;99.90
37158;DHT22;23050;51.776;22.638;2023-05-16T03:47:36;10.40;99.90
37158;DHT22;23050;51.776;22.638;2023-05-16T03:50:02;10.40;99.90
37158;DHT22;23050;51.776;22.638;2023-05-16T03:52:28;10.50;99.90
37158;DHT22;23050;51.776;22.638;2023-05-16T03:54:53;10.50;99.90
37158;DHT22;23050;51.776;22.638;2023-05-16T03:57:19;10.50;99.90
37158;DHT22;23050;51.776;22.638;2023-05-16T03:59:44;10.60;99.90
37158;DHT22;23050;51.776;22.638;2023-05-16T04:02:11;10.60;99.90
37158;DHT22;23050;51.776;22.638;2023-05-16T04:04:36;10.60;99.90
37158;DHT22;23050;51.776;22.638;2023-05-16T04:07:02;10.70;99.90
37158;DHT22;23050;51.776;22.638;2023-05-16T04:09:27;10.80;99.90
37158;DHT22;23050;51.776;22.638;2023-05-16T04:11:53;10.80;99.90
37158;DHT22;23050;51.776;22.638;2023-05-16T04:14:21;10.80;99.90
37158;DHT22;23050;51.776;22.638;2023-05-16T04:16:46;10.90;99.90
37158;DHT22;23050;51.776;22.638;2023-05-16T04:19:12;11.00;99.90
37158;DHT22;23050;51.776;22.638;2023-05-16T04:21:37;11.00;99.90
37158;DHT22;23050;51.776;22.638;2023-05-16T04:24:03;11.00;99.90
37158;DHT22;23050;51.776;22.638;2023-05-16T04:26:28;11.20;99.90
37158;DHT22;23050;51.776;22.638;2023-05-16T04:28:54;11.30;99.90
37158;DHT22;23050;51.776;22.638;2023-05-16T04:31:20;11.40;99.90
37158;DHT22;23050;51.776;22.638;2023-05-16T04:33:46;11.40;99.90
37158;DHT22;23050;51.776;22.638;2023-05-16T04:36:12;11.50;99.90
37158;DHT22;23050;51.776;22.638;2023-05-16T04:38:37;11.60;99.90
37158;DHT22;23050;51.776;22.638;2023-05-16T04:41:03;11.70;99.90
37158;DHT22;23050;51.776;22.638;2023-05-16T04:43:28;11.80;99.90
37158;DHT22;23050;51.776;22.638;2023-05-16T04:45:54;11.90;99.90
37158;DHT22;23050;51.776;22.638;2023-05-16T04:48:20;12.10;99.90
37158;DHT22;23050;51.776;22.638;2023-05-16T04:50:45;12.20;99.90
37158;DHT22;23050;51.776;22.638;2023-05-16T04:53:11;12.30;99.90
37158;DHT22;23050;51.776;22.638;2023-05-16T04:55:38;12.30;99.90
37158;DHT22;23050;51.776;22.638;2023-05-16T04:58:03;12.40;99.90
37158;DHT22;23050;51.776;22.638;2023-05-16T05:00:29;12.50;99.90
37158;DHT22;23050;51.776;22.638;2023-05-16T05:02:55;12.60;99.90
37158;DHT22;23050;51.776;22.638;2023-05-16T05:05:20;12.70;99.90
37158;DHT22;23050;51.776;22.638;2023-05-16T05:07:46;12.80;99.90
37158;DHT22;23050;51.776;22.638;2023-05-16T05:10:12;12.90;99.90
37158;DHT22;23050;51.776;22.638;2023-05-16T05:12:38;13.10;99.90
37158;DHT22;23050;51.776;22.638;2023-05-16T05:15:04;13.60;99.90
37158;DHT22;23050;51.776;22.638;2023-05-16T05:17:48;14.50;99.90
37158;DHT22;23050;51.776;22.638;2023-05-16T05:20:20;15.10;99.90
37158;DHT22;23050;51.776;22.638;2023-05-16T05:22:47;15.70;99.90
37158;DHT22;23050;51.776;22.638;2023-05-16T05:25:13;16.10;99.90
37158;DHT22;23050;51.776;22.638;2023-05-16T05:27:39;16.50;99.90
37158;DHT22;23050;51.776;22.638;2023-05-16T05:30:04;16.70;99.90
37158;DHT22;23050;51.776;22.638;2023-05-16T05:32:30;16.90;99.90
37158;DHT22;23050;51.776;22.638;2023-05-16T05:34:56;17.00;99.90
37158;DHT22;23050;51.776;22.638;2023-05-16T05:37:21;17.00;99.90
37158;DHT22;23050;51.776;22.638;2023-05-16T05:39:47;17.00;99.90
37158;DHT22;23050;51.776;22.638;2023-05-16T05:42:12;17.00;99.90
37158;DHT22;23050;51.776;22.638;2023-05-16T05:44:38;17.40;99.90
37158;DHT22;23050;51.776;22.638;2023-05-16T05:47:04;17.60;99.90
37158;DHT22;23050;51.776;22.638;2023-05-16T05:49:30;17.20;99.90
37158;DHT22;23050;51.776;22.638;2023-05-16T05:51:56;17.40;99.90
37158;DHT22;23050;51.776;22.638;2023-05-16T05:54:21;17.50;99.90
37158;DHT22;23050;51.776;22.638;2023-05-16T05:56:47;17.60;99.90
37158;DHT22;23050;51.776;22.638;2023-05-16T05:59:13;17.60;99.90
37158;DHT22;23050;51.776;22.638;2023-05-16T06:01:38;17.70;99.90
37158;DHT22;23050;51.776;22.638;2023-05-16T06:04:04;18.40;95.80
37158;DHT22;23050;51.776;22.638;2023-05-16T06:06:30;18.50;93.90
37158;DHT22;23050;51.776;22.638;2023-05-16T06:08:56;18.70;95.20
37158;DHT22;23050;51.776;22.638;2023-05-16T06:11:21;19.40;81.30
37158;DHT22;23050;51.776;22.638;2023-05-16T06:13:47;19.60;69.50
37158;DHT22;23050;51.776;22.638;2023-05-16T06:16:12;19.50;53.40
37158;DHT22;23050;51.776;22.638;2023-05-16T06:18:38;19.40;35.50
37158;DHT22;23050;51.776;22.638;2023-05-16T06:21:03;19.40;16.20
37158;DHT22;23050;51.776;22.638;2023-05-16T06:23:29;19.00;56.90
37158;DHT22;23050;51.776;22.638;2023-05-16T06:25:55;19.10;61.10
37158;DHT22;23050;51.776;22.638;2023-05-16T06:28:20;18.80;48.60
37158;DHT22;23050;51.776;22.638;2023-05-16T06:30:45;18.50;61.70
37158;DHT22;23050;51.776;22.638;2023-05-16T06:33:13;19.00;74.70
37158;DHT22;23050;51.776;22.638;2023-05-16T06:35:38;19.40;62.10
37158;DHT22;23050;51.776;22.638;2023-05-16T06:38:04;19.80;53.00
37158;DHT22;23050;51.776;22.638;2023-05-16T06:40:29;20.20;3.60
37158;DHT22;23050;51.776;22.638;2023-05-16T06:42:55;20.00;1.00
37158;DHT22;23050;51.776;22.638;2023-05-16T06:45:22;19.70;13.90
37158;DHT22;23050;51.776;22.638;2023-05-16T06:47:48;19.80;17.30
37158;DHT22;23050;51.776;22.638;2023-05-16T06:50:13;20.80;2.90
37158;DHT22;23050;51.776;22.638;2023-05-16T06:52:39;21.30;1.00
37158;DHT22;23050;51.776;22.638;2023-05-16T06:55:04;21.20;1.00
37158;DHT22;23050;51.776;22.638;2023-05-16T06:57:30;21.20;1.00
37158;DHT22;23050;51.776;22.638;2023-05-16T06:59:55;21.10;1.00
37158;DHT22;23050;51.776;22.638;2023-05-16T07:02:21;21.10;1.00
37158;DHT22;23050;51.776;22.638;2023-05-16T07:04:46;21.40;1.00
37158;DHT22;23050;51.776;22.638;2023-05-16T07:07:12;21.60;1.00
37158;DHT22;23050;51.776;22.638;2023-05-16T07:09:37;21.70;1.00
37158;DHT22;23050;51.776;22.638;2023-05-16T07:12:03;21.50;1.00
37158;DHT22;23050;51.776;22.638;2023-05-16T07:14:29;21.40;1.00
37158;DHT22;23050;51.776;22.638;2023-05-16T07:16:54;21.10;1.00
37158;DHT22;23050;51.776;22.638;2023-05-16T07:19:20;21.60;1.00
37158;DHT22;23050;51.776;22.638;2023-05-16T07:21:45;21.40;1.00
37158;DHT22;23050;51.776;22.638;2023-05-16T07:24:11;21.80;1.00
37158;DHT22;23050;51.776;22.638;2023-05-16T07:26:36;21.70;1.00
37158;DHT22;23050;51.776;22.638;2023-05-16T07:29:02;21.50;1.00
37158;DHT22;23050;51.776;22.638;2023-05-16T07:31:28;22.00;1.00
37158;DHT22;23050;51.776;22.638;2023-05-16T07:33:54;21.10;1.00
37158;DHT22;23050;51.776;22.638;2023-05-16T07:36:19;21.10;1.00
37158;DHT22;23050;51.776;22.638;2023-05-16T07:38:45;20.90;1.00
37158;DHT22;23050;51.776;22.638;2023-05-16T07:41:11;21.00;1.00
37158;DHT22;23050;51.776;22.638;2023-05-16T07:43:36;21.00;1.00
37158;DHT22;23050;51.776;22.638;2023-05-16T07:46:02;21.80;1.00
37158;DHT22;23050;51.776;22.638;2023-05-16T07:48:27;22.50;1.00
37158;DHT22;23050;51.776;22.638;2023-05-16T07:50:53;22.40;1.00
37158;DHT22;23050;51.776;22.638;2023-05-16T07:53:19;22.60;1.00
37158;DHT22;23050;51.776;22.638;2023-05-16T07:55:45;22.50;1.00
37158;DHT22;23050;51.776;22.638;2023-05-16T07:58:10;22.90;1.00
37158;DHT22;23050;51.776;22.638;2023-05-16T08:00:36;22.90;1.00
37158;DHT22;23050;51.776;22.638;2023-05-16T08:03:01;22.70;1.00
37158;DHT22;23050;51.776;22.638;2023-05-16T08:05:27;22.60;1.00
37158;DHT22;23050;51.776;22.638;2023-05-16T08:07:52;22.50;1.00
37158;DHT22;23050;51.776;22.638;2023-05-16T08:10:18;22.50;1.00
37158;DHT22;23050;51.776;22.638;2023-05-16T08:12:43;22.90;1.00
37158;DHT22;23050;51.776;22.638;2023-05-16T08:15:09;23.00;1.00
37158;DHT22;23050;51.776;22.638;2023-05-16T08:17:35;23.50;1.00
37158;DHT22;23050;51.776;22.638;2023-05-16T08:20:01;23.90;1.00
37158;DHT22;23050;51.776;22.638;2023-05-16T08:22:27;23.50;1.00
37158;DHT22;23050;51.776;22.638;2023-05-16T08:24:52;23.40;1.00
37158;DHT22;23050;51.776;22.638;2023-05-16T08:27:24;22.70;1.00
37158;DHT22;23050;51.776;22.638;2023-05-16T08:29:50;22.70;1.00
37158;DHT22;23050;51.776;22.638;2023-05-16T08:32:15;22.60;1.00
37158;DHT22;23050;51.776;22.638;2023-05-16T08:34:41;22.30;1.00
37158;DHT22;23050;51.776;22.638;2023-05-16T08:37:06;22.50;1.00
37158;DHT22;23050;51.776;22.638;2023-05-16T08:39:32;22.60;1.00
37158;DHT22;23050;51.776;22.638;2023-05-16T08:41:58;22.80;1.00
37158;DHT22;23050;51.776;22.638;2023-05-16T08:44:24;23.50;1.00
37158;DHT22;23050;51.776;22.638;2023-05-16T08:46:50;23.40;1.00
37158;DHT22;23050;51.776;22.638;2023-05-16T08:49:17;23.50;1.00
37158;DHT22;23050;51.776;22.638;2023-05-16T08:51:43;23.00;1.00
37158;DHT22;23050;51.776;22.638;2023-05-16T08:54:10;23.40;1.00
37158;DHT22;23050;51.776;22.638;2023-05-16T08:56:37;23.30;1.00
37158;DHT22;23050;51.776;22.638;2023-05-16T08:59:03;22.90;1.00
37158;DHT22;23050;51.776;22.638;2023-05-16T09:01:29;22.70;1.00
37158;DHT22;23050;51.776;22.638;2023-05-16T09:03:55;22.90;1.00
37158;DHT22;23050;51.776;22.638;2023-05-16T09:06:20;23.20;1.00
37158;DHT22;23050;51.776;22.638;2023-05-16T09:08:46;23.40;1.00
37158;DHT22;23050;51.776;22.638;2023-05-16T09:11:11;23.10;1.00
37158;DHT22;23050;51.776;22.638;2023-05-16T09:13:38;23.00;1.00
37158;DHT22;23050;51.776;22.638;2023-05-16T09:16:07;22.90;1.00
37158;DHT22;23050;51.776;22.638;2023-05-16T09:18:32;22.30;1.00
37158;DHT22;23050;51.776;22.638;2023-05-16T09:20:58;21.90;1.00
37158;DHT22;23050;51.776;22.638;2023-05-16T09:23:24;21.90;1.00
37158;DHT22;23050;51.776;22.638;2023-05-16T09:25:51;21.50;1.00
37158;DHT22;23050;51.776;22.638;2023-05-16T09:28:17;21.60;1.00
37158;DHT22;23050;51.776;22.638;2023-05-16T09:30:44;21.70;1.00
37158;DHT22;23050;51.776;22.638;2023-05-16T09:33:10;21.80;1.00
37158;DHT22;23050;51.776;22.638;2023-05-16T09:35:36;22.10;1.00
37158;DHT22;23050;51.776;22.638;2023-05-16T09:38:01;22.20;1.00
37158;DHT22;23050;51.776;22.638;2023-05-16T09:40:26;22.30;1.00
37158;DHT22;23050;51.776;22.638;2023-05-16T09:43:05;22.40;1.00
37158;DHT22;23050;51.776;22.638;2023-05-16T09:45:31;22.70;1.00
37158;DHT22;23050;51.776;22.638;2023-05-16T09:48:01;22.80;1.00
37158;DHT22;23050;51.776;22.638;2023-05-16T09:50:26;22.90;1.00
37158;DHT22;23050;51.776;22.638;2023-05-16T09:52:52;22.80;1.00
37158;DHT22;23050;51.776;22.638;2023-05-16T09:55:18;22.50;1.00
37158;DHT22;23050;51.776;22.638;2023-05-16T09:57:43;22.10;1.00
37158;DHT22;23050;51.776;22.638;2023-05-16T10:00:11;22.00;1.00
37158;DHT22;23050;51.776;22.638;2023-05-16T10:02:37;21.60;1.00
37158;DHT22;23050;51.776;22.638;2023-05-16T10:05:06;21.50;1.00
37158;DHT22;23050;51.776;22.638;2023-05-16T10:07:31;21.50;1.00
37158;DHT22;23050;51.776;22.638;2023-05-16T10:09:59;21.70;1.00
37158;DHT22;23050;51.776;22.638;2023-05-16T10:12:25;21.90;1.00
37158;DHT22;23050;51.776;22.638;2023-05-16T10:14:53;21.80;1.00
37158;DHT22;23050;51.776;22.638;2023-05-16T10:17:19;21.90;1.00
37158;DHT22;23050;51.776;22.638;2023-05-16T10:19:45;22.00;1.00
37158;DHT22;23050;51.776;22.638;2023-05-16T10:22:11;22.20;1.00
37158;DHT22;23050;51.776;22.638;2023-05-16T10:24:47;22.30;1.00
37158;DHT22;23050;51.776;22.638;2023-05-16T10:27:14;21.60;1.00
37158;DHT22;23050;51.776;22.638;2023-05-16T10:29:39;21.50;1.00
37158;DHT22;23050;51.776;22.638;2023-05-16T10:32:06;21.40;1.00
37158;DHT22;23050;51.776;22.638;2023-05-16T10:34:32;21.00;1.00
37158;DHT22;23050;51.776;22.638;2023-05-16T10:36:58;20.90;1.00
37158;DHT22;23050;51.776;22.638;2023-05-16T10:39:24;20.70;1.00
37158;DHT22;23050;51.776;22.638;2023-05-16T10:41:50;20.80;1.00
37158;DHT22;23050;51.776;22.638;2023-05-16T10:44:15;20.70;1.00
37158;DHT22;23050;51.776;22.638;2023-05-16T10:46:41;20.70;1.00
37158;DHT22;23050;51.776;22.638;2023-05-16T10:51:44;21.60;1.00
37158;DHT22;23050;51.776;22.638;2023-05-16T10:54:10;21.50;1.00
37158;DHT22;23050;51.776;22.638;2023-05-16T10:56:38;21.60;1.00
37158;DHT22;23050;51.776;22.638;2023-05-16T10:59:03;21.60;1.00
37158;DHT22;23050;51.776;22.638;2023-05-16T11:01:31;22.00;1.00
37158;DHT22;23050;51.776;22.638;2023-05-16T11:11:38;22.20;1.00
37158;DHT22;23050;51.776;22.638;2023-05-16T11:14:04;21.60;1.00
37158;DHT22;23050;51.776;22.638;2023-05-16T11:16:30;21.70;1.00
37158;DHT22;23050;51.776;22.638;2023-05-16T11:19:03;21.70;1.00
37158;DHT22;23050;51.776;22.638;2023-05-16T11:24:26;22.00;1.00
37158;DHT22;23050;51.776;22.638;2023-05-16T11:26:52;22.10;1.00
37158;DHT22;23050;51.776;22.638;2023-05-16T11:29:17;22.20;1.00
37158;DHT22;23050;51.776;22.638;2023-05-16T11:31:43;22.20;1.00
37158;DHT22;23050;51.776;22.638;2023-05-16T11:34:08;22.20;1.00
37158;DHT22;23050;51.776;22.638;2023-05-16T11:36:34;22.00;1.00
37158;DHT22;23050;51.776;22.638;2023-05-16T11:39:04;21.90;1.00
37158;DHT22;23050;51.776;22.638;2023-05-16T11:41:30;21.70;1.00
37158;DHT22;23050;51.776;22.638;2023-05-16T11:43:56;22.20;1.00
37158;DHT22;23050;51.776;22.638;2023-05-16T11:46:22;22.30;1.00
37158;DHT22;23050;51.776;22.638;2023-05-16T11:48:47;22.60;1.00
37158;DHT22;23050;51.776;22.638;2023-05-16T11:51:13;22.80;1.00
37158;DHT22;23050;51.776;22.638;2023-05-16T11:53:42;22.90;1.00
37158;DHT22;23050;51.776;22.638;2023-05-16T11:56:09;23.40;1.00
37158;DHT22;23050;51.776;22.638;2023-05-16T11:58:35;23.60;1.00
37158;DHT22;23050;51.776;22.638;2023-05-16T12:01:02;23.80;1.00
37158;DHT22;23050;51.776;22.638;2023-05-16T12:03:31;23.60;1.00
37158;DHT22;23050;51.776;22.638;2023-05-16T12:05:59;22.90;1.00
37158;DHT22;23050;51.776;22.638;2023-05-16T12:08:26;22.70;1.00
37158;DHT22;23050;51.776;22.638;2023-05-16T12:10:52;22.70;1.00
37158;DHT22;23050;51.776;22.638;2023-05-16T12:13:18;23.20;1.00
37158;DHT22;23050;51.776;22.638;2023-05-16T12:15:45;23.10;1.00
37158;DHT22;23050;51.776;22.638;2023-05-16T12:18:10;23.10;1.00
37158;DHT22;23050;51.776;22.638;2023-05-16T12:20:36;23.60;1.00
37158;DHT22;23050;51.776;22.638;2023-05-16T12:23:02;23.70;1.00
37158;DHT22;23050;51.776;22.638;2023-05-16T12:25:29;23.40;1.00
37158;DHT22;23050;51.776;22.638;2023-05-16T12:27:59;23.40;1.00
37158;DHT22;23050;51.776;22.638;2023-05-16T12:30:34;23.50;1.00
37158;DHT22;23050;51.776;22.638;2023-05-16T12:33:01;23.50;1.00
37158;DHT22;23050;51.776;22.638;2023-05-16T12:35:30;23.00;1.00
37158;DHT22;23050;51.776;22.638;2023-05-16T12:37:56;22.90;1.00
37158;DHT22;23050;51.776;22.638;2023-05-16T12:40:22;23.20;1.00
37158;DHT22;23050;51.776;22.638;2023-05-16T12:42:50;23.80;1.00
37158;DHT22;23050;51.776;22.638;2023-05-16T12:45:25;24.60;1.00
37158;DHT22;23050;51.776;22.638;2023-05-16T12:48:13;24.40;1.00
37158;DHT22;23050;51.776;22.638;2023-05-16T12:50:39;24.10;1.00
37158;DHT22;23050;51.776;22.638;2023-05-16T12:53:09;23.70;1.00
37158;DHT22;23050;51.776;22.638;2023-05-16T12:55:35;23.10;1.00
37158;DHT22;23050;51.776;22.638;2023-05-16T12:58:00;23.00;1.00
37158;DHT22;23050;51.776;22.638;2023-05-16T13:00:26;23.00;1.00
37158;DHT22;23050;51.776;22.638;2023-05-16T13:02:52;22.90;1.00
37158;DHT22;23050;51.776;22.638;2023-05-16T13:05:18;22.60;1.00
37158;DHT22;23050;51.776;22.638;2023-05-16T13:07:46;23.10;1.00
37158;DHT22;23050;51.776;22.638;2023-05-16T13:10:11;23.80;1.00
37158;DHT22;23050;51.776;22.638;2023-05-16T13:12:37;23.90;1.00
37158;DHT22;23050;51.776;22.638;2023-05-16T13:15:03;23.90;1.00
37158;DHT22;23050;51.776;22.638;2023-05-16T13:17:29;23.80;1.00
37158;DHT22;23050;51.776;22.638;2023-05-16T13:19:57;23.90;1.00
37158;DHT22;23050;51.776;22.638;2023-05-16T13:22:22;23.40;1.00
37158;DHT22;23050;51.776;22.638;2023-05-16T13:24:48;23.00;1.00
37158;DHT22;23050;51.776;22.638;2023-05-16T13:27:15;22.70;1.00
37158;DHT22;23050;51.776;22.638;2023-05-16T13:29:40;22.60;1.00
37158;DHT22;23050;51.776;22.638;2023-05-16T13:32:06;22.80;1.00
37158;DHT22;23050;51.776;22.638;2023-05-16T13:34:32;23.10;1.00
37158;DHT22;23050;51.776;22.638;2023-05-16T13:36:58;23.40;1.00
37158;DHT22;23050;51.776;22.638;2023-05-16T13:39:23;23.70;1.00
37158;DHT22;23050;51.776;22.638;2023-05-16T13:41:49;24.40;1.00
37158;DHT22;23050;51.776;22.638;2023-05-16T13:44:15;25.10;1.00
37158;DHT22;23050;51.776;22.638;2023-05-16T13:46:40;25.80;1.00
37158;DHT22;23050;51.776;22.638;2023-05-16T13:49:07;26.10;1.00
37158;DHT22;23050;51.776;22.638;2023-05-16T13:51:33;25.70;1.00
37158;DHT22;23050;51.776;22.638;2023-05-16T13:53:58;24.80;1.00
37158;DHT22;23050;51.776;22.638;2023-05-16T13:56:23;24.70;1.00
37158;DHT22;23050;51.776;22.638;2023-05-16T13:58:50;24.80;1.00
37158;DHT22;23050;51.776;22.638;2023-05-16T14:01:15;24.70;1.00
37158;DHT22;23050;51.776;22.638;2023-05-16T14:03:41;24.50;1.00
37158;DHT22;23050;51.776;22.638;2023-05-16T14:06:07;24.60;1.00
37158;DHT22;23050;51.776;22.638;2023-05-16T14:08:33;24.30;1.00
37158;DHT22;23050;51.776;22.638;2023-05-16T14:10:58;24.00;1.00
37158;DHT22;23050;51.776;22.638;2023-05-16T14:13:24;23.70;1.00
37158;DHT22;23050;51.776;22.638;2023-05-16T14:15:49;23.70;1.00
37158;DHT22;23050;51.776;22.638;2023-05-16T14:18:16;23.50;1.00
37158;DHT22;23050;51.776;22.638;2023-05-16T14:20:42;23.40;1.00
37158;DHT22;23050;51.776;22.638;2023-05-16T14:23:07;23.30;1.00
37158;DHT22;23050;51.776;22.638;2023-05-16T14:25:32;23.10;1.00
37158;DHT22;23050;51.776;22.638;2023-05-16T14:27:58;23.00;1.00
37158;DHT22;23050;51.776;22.638;2023-05-16T14:30:23;22.90;1.00
37158;DHT22;23050;51.776;22.638;2023-05-16T14:32:50;22.90;1.00
37158;DHT22;23050;51.776;22.638;2023-05-16T14:35:15;22.80;1.00
37158;DHT22;23050;51.776;22.638;2023-05-16T14:37:41;22.70;1.00
37158;DHT22;23050;51.776;22.638;2023-05-16T14:40:06;22.60;1.00
37158;DHT22;23050;51.776;22.638;2023-05-16T14:42:33;22.40;1.00
37158;DHT22;23050;51.776;22.638;2023-05-16T14:44:58;22.20;1.00
37158;DHT22;23050;51.776;22.638;2023-05-16T14:47:24;22.20;1.00
37158;DHT22;23050;51.776;22.638;2023-05-16T14:49:49;22.20;1.00
37158;DHT22;23050;51.776;22.638;2023-05-16T14:52:17;22.20;1.00
37158;DHT22;23050;51.776;22.638;2023-05-16T14:54:42;22.30;1.00
37158;DHT22;23050;51.776;22.638;2023-05-16T14:57:08;22.40;1.00
37158;DHT22;23050;51.776;22.638;2023-05-16T14:59:33;22.30;1.00
37158;DHT22;23050;51.776;22.638;2023-05-16T15:01:59;22.20;1.00
37158;DHT22;23050;51.776;22.638;2023-05-16T15:04:25;22.10;1.00
37158;DHT22;23050;51.776;22.638;2023-05-16T15:06:51;22.00;1.00
37158;DHT22;23050;51.776;22.638;2023-05-16T15:09:16;22.00;1.00
37158;DHT22;23050;51.776;22.638;2023-05-16T15:11:43;21.90;1.00
37158;DHT22;23050;51.776;22.638;2023-05-16T15:14:09;21.80;1.00
37158;DHT22;23050;51.776;22.638;2023-05-16T15:16:34;21.70;1.00
37158;DHT22;23050;51.776;22.638;2023-05-16T15:19:00;21.50;1.00
37158;DHT22;23050;51.776;22.638;2023-05-16T15:21:25;21.40;1.00
37158;DHT22;23050;51.776;22.638;2023-05-16T15:23:51;21.40;1.00
37158;DHT22;23050;51.776;22.638;2023-05-16T15:26:17;21.30;1.00
37158;DHT22;23050;51.776;22.638;2023-05-16T15:28:43;21.30;1.00
37158;DHT22;23050;51.776;22.638;2023-05-16T15:31:08;21.00;1.00
37158;DHT22;23050;51.776;22.638;2023-05-16T15:33:35;20.80;1.00
37158;DHT22;23050;51.776;22.638;2023-05-16T15:36:00;20.70;1.00
37158;DHT22;23050;51.776;22.638;2023-05-16T15:38:26;20.60;1.00
37158;DHT22;23050;51.776;22.638;2023-05-16T15:40:51;20.50;1.00
37158;DHT22;23050;51.776;22.638;2023-05-16T15:43:17;20.40;1.00
37158;DHT22;23050;51.776;22.638;2023-05-16T15:45:42;20.30;1.00